Time;durP1;ratioP1;P1;durP2;ratioP2;P2;SDS_P1;SDS_P2;PMS_P1;PMS_P2;Temp;Humidity;BMP_temperature;BMP_pressure;BME280_temperature;BME280_humidity;BME280_pressure;Samples;Min_cycle;Max_cycle;Signal;HPM_P1;HPM_P2
2021/01/26 00:00:57;;;;;;;38.95;26.67;;;;;;;;;;6297899;22;20167;-81
2021/01/26 00:03:26;;;;;;;35.42;26.15;;;;;;;;;;6320872;22;20520;-84
2021/01/26 00:05:55;;;;;;;37.50;27.20;;;;;;;;;;6323566;22;20140;-81
2021/01/26 00:08:22;;;;;;;27.27;23.00;;;;;;;;;;6294426;22;20176;-82
2021/01/26 00:10:53;;;;;;;32.70;23.52;;;;;;;;;;6300095;22;20197;-82
2021/01/26 00:13:20;;;;;;;30.30;27.05;;;;;;;;;;6328640;22;20223;-81
2021/01/26 00:15:47;;;;;;;37.55;27.08;;;;;;;;;;6295726;22;20203;-81
2021/01/26 00:18:13;;;;;;;39.17;27.63;;;;;;;;;;6296289;22;20198;-81
2021/01/26 00:20:39;;;;;;;33.75;28.17;;;;;;;;;;6267369;22;20175;-79
2021/01/26 00:23:07;;;;;;;39.83;25.10;;;;;;;;;;6292165;22;20156;-80
2021/01/26 00:25:41;;;;;;;34.75;26.00;;;;;;;;;;6294335;22;20125;-80
2021/01/26 00:28:33;;;;;;;31.90;24.58;;;;;;;;;;6279770;22;20676;-82
2021/01/26 00:31:09;;;;;;;;;;;;;;;;;;;;;
2021/01/26 00:33:35;;;;;;;34.83;24.42;;;;;;;;;;6317584;22;20129;-82
2021/01/26 00:36:13;;;;;;;35.90;27.50;;;;;;;;;;6323510;22;20192;-83
2021/01/26 00:38:42;;;;;;;36.70;24.80;;;;;;;;;;6293340;22;20159;-79
2021/01/26 00:41:20;;;;;;;28.55;24.55;;;;;;;;;;6270215;22;20173;-82
2021/01/26 00:43:56;;;;;;;;;;;;;;;;;;;;;
2021/01/26 00:46:25;;;;;;;30.83;24.00;;;;;;;;;;6303882;22;20474;-83
2021/01/26 00:49:01;;;;;;;30.35;24.52;;;;;;;;;;6296234;22;20165;-81
2021/01/26 00:51:28;;;;;;;26.58;22.73;;;;;;;;;;6296972;22;20179;-83
2021/01/26 00:53:54;;;;;;;35.15;25.92;;;;;;;;;;6297959;22;20191;-83
2021/01/26 00:56:23;;;;;;;32.25;28.30;;;;;;;;;;6288239;22;20195;-80
2021/01/26 00:58:49;;;;;;;29.75;23.85;;;;;;;;;;6287833;22;20148;-81
2021/01/26 01:01:17;;;;;;;35.50;23.25;;;;;;;;;;6263228;22;20175;-82
2021/01/26 01:03:46;;;;;;;30.20;24.50;;;;;;;;;;6290828;22;20541;-80
2021/01/26 01:06:13;;;;;;;28.35;23.58;;;;;;;;;;6315720;22;20237;-83
2021/01/26 01:08:39;;;;;;;29.58;23.17;;;;;;;;;;6288697;22;20204;-83
2021/01/26 01:11:05;;;;;;;31.63;25.33;;;;;;;;;;6314998;22;20689;-83
2021/01/26 01:13:31;;;;;;;38.78;26.23;;;;;;;;;;6316571;22;20140;-83
2021/01/26 01:15:57;;;;;;;27.55;23.42;;;;;;;;;;6289737;22;20148;-83
2021/01/26 01:18:23;;;;;;;28.35;24.13;;;;;;;;;;6289224;22;20153;-83
2021/01/26 01:20:49;;;;;;;32.80;24.95;;;;;;;;;;6315973;22;20594;-81
2021/01/26 01:23:15;;;;;;;30.45;24.85;;;;;;;;;;6289317;22;20140;-82
2021/01/26 01:25:41;;;;;;;30.63;25.45;;;;;;;;;;6314981;22;20141;-82
2021/01/26 01:28:10;;;;;;;31.75;25.92;;;;;;;;;;6315653;22;20215;-83
2021/01/26 01:30:36;;;;;;;30.85;23.17;;;;;;;;;;6290538;22;20136;-82
2021/01/26 01:33:06;;;;;;;35.33;25.50;;;;;;;;;;6327392;22;20161;-83
2021/01/26 01:35:32;;;;;;;29.80;23.52;;;;;;;;;;6335047;22;20159;-83
2021/01/26 01:37:58;;;;;;;31.80;24.52;;;;;;;;;;6319287;22;20658;-82
2021/01/26 01:40:27;;;;;;;29.65;25.90;;;;;;;;;;6316343;22;20140;-83
2021/01/26 01:42:53;;;;;;;38.58;27.88;;;;;;;;;;6263424;22;20631;-81
2021/01/26 01:45:20;;;;;;;30.02;25.67;;;;;;;;;;6318334;22;20160;-82
2021/01/26 01:47:49;;;;;;;37.38;28.20;;;;;;;;;;6316393;22;20175;-83
2021/01/26 01:50:40;;;;;;;34.33;26.33;;;;;;;;;;6320186;22;20137;-82
2021/01/26 01:53:13;;;;;;;39.38;26.45;;;;;;;;;;6315937;22;20579;-82
2021/01/26 01:55:54;;;;;;;31.65;23.23;;;;;;;;;;6313572;22;20152;-83
2021/01/26 01:58:24;;;;;;;27.85;25.08;;;;;;;;;;6286082;22;20168;-82
2021/01/26 02:00:53;;;;;;;40.00;29.02;;;;;;;;;;6261607;22;20216;-84
2021/01/26 02:03:21;;;;;;;31.25;25.08;;;;;;;;;;6286362;22;20152;-83
2021/01/26 02:05:55;;;;;;;33.25;24.58;;;;;;;;;;6286686;22;20599;-84
2021/01/26 02:08:28;;;;;;;32.67;24.98;;;;;;;;;;6316638;22;20172;-85
2021/01/26 02:11:15;;;;;;;35.13;24.98;;;;;;;;;;6314765;22;20610;-83
2021/01/26 02:13:44;;;;;;;32.15;24.23;;;;;;;;;;6321457;22;20125;-83
2021/01/26 02:16:17;;;;;;;30.50;23.45;;;;;;;;;;6291906;22;20283;-82
2021/01/26 02:18:53;;;;;;;28.42;25.25;;;;;;;;;;6288497;22;20136;-83
2021/01/26 02:21:35;;;;;;;29.80;25.20;;;;;;;;;;6262183;22;20168;-83
2021/01/26 02:24:01;;;;;;;32.78;25.55;;;;;;;;;;6287450;22;20167;-83
2021/01/26 02:26:53;;;;;;;31.17;26.70;;;;;;;;;;6287807;22;20212;-82
2021/01/26 02:29:25;;;;;;;31.63;24.80;;;;;;;;;;6260656;22;20180;-81
2021/01/26 02:31:58;;;;;;;35.28;24.40;;;;;;;;;;6317136;22;20168;-82
2021/01/26 02:34:43;;;;;;;27.92;24.80;;;;;;;;;;6288910;22;20246;-82
2021/01/26 02:37:18;;;;;;;27.10;24.27;;;;;;;;;;6316595;22;20144;-83
2021/01/26 02:39:50;;;;;;;32.75;26.30;;;;;;;;;;6316464;22;20137;-82
2021/01/26 02:42:35;;;;;;;33.03;24.10;;;;;;;;;;6319063;22;20229;-83
2021/01/26 02:45:14;;;;;;;33.40;24.75;;;;;;;;;;6315974;22;20277;-83
2021/01/26 02:47:47;;;;;;;32.75;23.98;;;;;;;;;;6266856;22;20167;-82
2021/01/26 02:50:23;;;;;;;31.75;22.70;;;;;;;;;;6296792;22;20148;-81
2021/01/26 02:52:55;;;;;;;30.40;25.55;;;;;;;;;;6292707;22;20214;-82
2021/01/26 02:55:30;;;;;;;33.85;24.75;;;;;;;;;;6273733;22;20140;-83
2021/01/26 02:58:14;;;;;;;29.55;23.75;;;;;;;;;;6296196;22;20145;-84
2021/01/26 03:01:10;;;;;;;33.05;26.10;;;;;;;;;;6268452;22;20172;-82
2021/01/26 03:03:42;;;;;;;27.85;22.67;;;;;;;;;;6291537;22;20151;-81
2021/01/26 03:06:14;;;;;;;31.50;23.52;;;;;;;;;;6322484;22;20140;-82
2021/01/26 03:09:01;;;;;;;31.80;25.08;;;;;;;;;;6277757;22;20180;-82
2021/01/26 03:11:43;;;;;;;30.63;25.05;;;;;;;;;;6272188;22;20255;-81
2021/01/26 03:14:17;;;;;;;29.08;21.92;;;;;;;;;;6321118;22;20140;-82
2021/01/26 03:16:50;;;;;;;33.58;25.08;;;;;;;;;;6294382;22;20147;-81
2021/01/26 03:19:19;;;;;;;29.45;23.35;;;;;;;;;;6296884;22;20524;-80
2021/01/26 03:21:49;;;;;;;27.63;24.48;;;;;;;;;;6295197;22;20168;-81
2021/01/26 03:24:18;;;;;;;24.02;21.50;;;;;;;;;;6322816;22;20148;-81
2021/01/26 03:26:44;;;;;;;27.35;22.10;;;;;;;;;;6299489;22;20196;-81
2021/01/26 03:29:21;;;;;;;30.38;25.77;;;;;;;;;;6303496;22;20168;-81
2021/01/26 03:31:59;;;;;;;28.30;22.33;;;;;;;;;;6291609;22;20171;-81
2021/01/26 03:34:34;;;;;;;31.02;22.25;;;;;;;;;;6279951;22;20206;-81
2021/01/26 03:37:10;;;;;;;32.00;22.50;;;;;;;;;;6300468;22;20208;-81
2021/01/26 03:39:42;;;;;;;28.90;22.52;;;;;;;;;;6296487;22;20155;-81
2021/01/26 03:42:28;;;;;;;29.90;22.25;;;;;;;;;;6272805;22;20180;-83
2021/01/26 03:45:06;;;;;;;29.08;24.13;;;;;;;;;;6272862;22;20204;-84
2021/01/26 03:47:49;;;;;;;;;;;;;;;;;;;;;
2021/01/26 03:50:41;;;;;;;31.23;23.13;;;;;;;;;;6295119;22;20164;-82
2021/01/26 03:53:35;;;;;;;24.95;21.98;;;;;;;;;;6295285;22;20137;-82
2021/01/26 03:56:06;;;;;;;31.10;23.95;;;;;;;;;;6267511;22;20145;-82
2021/01/26 03:58:41;;;;;;;35.35;26.90;;;;;;;;;;6261641;22;20144;-82
2021/01/26 04:01:49;;;;;;;;;;;;;;;;;;;;;
2021/01/26 04:04:44;;;;;;;35.40;24.58;;;;;;;;;;6311146;22;20155;-82
2021/01/26 04:07:16;;;;;;;30.15;22.73;;;;;;;;;;6286888;22;20145;-83
2021/01/26 04:10:02;;;;;;;34.55;24.98;;;;;;;;;;6314103;22;20215;-82
2021/01/26 04:12:33;;;;;;;27.65;23.10;;;;;;;;;;6287960;22;20191;-83
2021/01/26 04:15:06;;;;;;;29.52;23.05;;;;;;;;;;6287871;22;20137;-83
2021/01/26 04:17:43;;;;;;;;;;;;;;;;;;;;;
2021/01/26 04:20:21;;;;;;;29.95;22.95;;;;;;;;;;6291738;22;20156;-83
2021/01/26 04:22:55;;;;;;;33.03;25.20;;;;;;;;;;6286937;22;20188;-81
2021/01/26 04:25:40;;;;;;;32.63;26.42;;;;;;;;;;6288384;22;20213;-82
2021/01/26 04:28:08;;;;;;;33.50;24.50;;;;;;;;;;6317304;22;20533;-83
2021/01/26 04:30:34;;;;;;;33.03;23.60;;;;;;;;;;6315812;22;20141;-82
2021/01/26 04:33:02;;;;;;;32.25;24.35;;;;;;;;;;6315645;22;20144;-81
2021/01/26 04:35:28;;;;;;;29.38;23.30;;;;;;;;;;6288567;22;20250;-83
2021/01/26 04:37:55;;;;;;;36.35;25.55;;;;;;;;;;6263404;22;20156;-81
2021/01/26 04:40:27;;;;;;;29.80;22.50;;;;;;;;;;6291832;22;20141;-83
2021/01/26 04:43:12;;;;;;;37.08;27.10;;;;;;;;;;6238801;22;20173;-84
2021/01/26 04:45:53;;;;;;;33.75;26.17;;;;;;;;;;6271331;22;20146;-84
2021/01/26 04:49:09;;;;;;;33.45;24.95;;;;;;;;;;6294554;22;20188;-84
2021/01/26 05:02:58;;;;;;;30.08;24.13;;;;;;;;;;6085818;23;20275;-84
2021/01/26 05:09:41;;;;;;;;;;;;;;;;;;;;;
2021/01/26 05:19:32;;;;;;;32.17;24.67;;;;;;;;;;6130988;23;20188;-83
2021/01/26 05:26:12;;;;;;;;;;;;;;;;;;;;;
2021/01/26 05:36:19;;;;;;;31.80;21.58;;;;;;;;;;5933176;24;20184;-84
2021/01/26 05:39:30;;;;;;;29.42;22.40;;;;;;;;;;5933044;24;20339;-84
2021/01/26 05:45:59;;;;;;;;;;;;;;;;;;;;;
2021/01/26 05:49:18;;;;;;;;;;;;;;;;;;;;;
2021/01/26 05:58:58;;;;;;;31.58;25.13;;;;;;;;;;6079953;23;20238;-84
2021/01/26 06:01:42;;;;;;;31.83;23.83;;;;;;;;;;6064949;23;20217;-85
2021/01/26 06:04:52;;;;;;;31.88;24.38;;;;;;;;;;6028568;23;20215;-85
2021/01/26 06:11:34;;;;;;;;;;;;;;;;;;;;;
2021/01/26 06:14:31;;;;;;;34.33;24.83;;;;;;;;;;6198263;23;20186;-86
2021/01/26 06:18:12;;;;;;;;;;;;;;;;;;;;;
2021/01/26 06:27:05;;;;;;;;;;;;;;;;;;;;;
2021/01/26 06:34:05;;;;;;;27.67;24.77;;;;;;;;;;6254982;23;20161;-86
2021/01/26 06:37:00;;;;;;;27.15;23.58;;;;;;;;;;6146533;23;20150;-86
2021/01/26 06:39:35;;;;;;;30.63;22.17;;;;;;;;;;6166265;23;20154;-84
2021/01/26 06:42:25;;;;;;;26.85;22.45;;;;;;;;;;6141510;23;20171;-84
2021/01/26 06:45:22;;;;;;;23.48;20.42;;;;;;;;;;6136909;23;20148;-84
2021/01/26 07:15:51;;;;;;;21.95;19.67;;;;;;;;;;6291319;22;20300;-79
2021/01/26 07:18:36;;;;;;;26.13;21.58;;;;;;;;;;6265514;22;20161;-81
2021/01/26 07:21:31;;;;;;;;;;;;;;;;;;;;;
2021/01/26 07:24:28;;;;;;;26.05;21.85;;;;;;;;;;6313850;22;20149;-83
2021/01/26 07:27:15;;;;;;;29.67;21.08;;;;;;;;;;6274351;22;20596;-82
2021/01/26 07:56:42;;;;;;;32.13;23.23;;;;;;;;;;5922913;24;20211;-89
2021/01/26 08:49:23;;;;;;;25.27;21.35;;;;;;;;;;6317440;22;20199;-82
2021/01/26 08:51:56;;;;;;;33.13;21.83;;;;;;;;;;6293682;22;20174;-83
2021/01/26 08:54:51;;;;;;;;;;;;;;;;;;;;;
2021/01/26 08:57:25;;;;;;;22.85;19.85;;;;;;;;;;6288114;22;20172;-83
2021/01/26 08:59:51;;;;;;;26.23;21.88;;;;;;;;;;6295997;22;20156;-82
2021/01/26 09:02:39;;;;;;;28.80;22.13;;;;;;;;;;6262645;22;20144;-82
2021/01/26 09:05:25;;;;;;;27.38;24.50;;;;;;;;;;6287251;22;20149;-82
2021/01/26 09:07:56;;;;;;;23.58;21.05;;;;;;;;;;6312387;22;20187;-83
2021/01/26 09:10:31;;;;;;;27.92;22.85;;;;;;;;;;6313462;22;20136;-81
2021/01/26 09:13:18;;;;;;;33.47;23.98;;;;;;;;;;6286397;22;20158;-81
2021/01/26 09:15:59;;;;;;;31.17;23.67;;;;;;;;;;6312702;22;20180;-83
2021/01/26 09:18:27;;;;;;;28.70;22.95;;;;;;;;;;6260009;22;20174;-82
2021/01/26 09:21:00;;;;;;;28.40;22.15;;;;;;;;;;6314865;22;20144;-82
2021/01/26 09:23:47;;;;;;;30.40;21.00;;;;;;;;;;6262428;22;20153;-83
2021/01/26 09:26:28;;;;;;;28.50;22.95;;;;;;;;;;6312915;22;20514;-84
2021/01/26 09:28:55;;;;;;;24.58;20.30;;;;;;;;;;6287581;22;20191;-82
2021/01/26 09:31:25;;;;;;;28.98;21.08;;;;;;;;;;6287329;22;20166;-82
2021/01/26 09:34:23;;;;;;;28.83;22.23;;;;;;;;;;6316731;22;20468;-81
2021/01/26 09:37:21;;;;;;;;;;;;;;;;;;;;;
2021/01/26 09:40:19;;;;;;;23.70;19.30;;;;;;;;;;6318063;22;20137;-82
2021/01/26 09:42:48;;;;;;;28.15;19.65;;;;;;;;;;6263257;22;20145;-84
2021/01/26 09:45:20;;;;;;;28.90;24.52;;;;;;;;;;6263373;22;20227;-83
2021/01/26 09:47:55;;;;;;;25.58;20.52;;;;;;;;;;6262272;22;20551;-82
2021/01/26 09:50:38;;;;;;;22.00;19.80;;;;;;;;;;6316014;22;20136;-82
2021/01/26 09:53:05;;;;;;;23.88;21.38;;;;;;;;;;6316185;22;20129;-82
2021/01/26 09:55:50;;;;;;;22.80;20.38;;;;;;;;;;6317444;22;20171;-82
2021/01/26 09:58:16;;;;;;;24.73;19.88;;;;;;;;;;6317242;22;20157;-81
2021/01/26 10:04:26;;;;;;;29.60;23.45;;;;;;;;;;6275397;22;20476;-79
2021/01/26 10:07:40;;;;;;;;;;;;;;;;;;;;;
2021/01/26 10:11:47;;;;;;;;;;;;;;;;;;;;;
2021/01/26 10:14:17;;;;;;;23.00;19.83;;;;;;;;;;6158390;23;20219;-82
2021/01/26 10:17:19;;;;;;;22.27;18.00;;;;;;;;;;6188252;23;20162;-81
2021/01/26 10:20:16;;;;;;;24.77;21.30;;;;;;;;;;6175795;22;20290;-82
2021/01/26 10:23:14;;;;;;;;;;;;;;;;;;;;;
2021/01/26 10:26:28;;;;;;;24.63;20.80;;;;;;;;;;6310402;22;20286;-84
2021/01/26 10:29:12;;;;;;;;;;;;;;;;;;;;;
2021/01/26 10:31:55;;;;;;;23.30;20.60;;;;;;;;;;6287639;22;20148;-82
2021/01/26 10:38:23;;;;;;;24.27;21.88;;;;;;;;;;6315430;22;20297;-83
2021/01/26 10:44:31;;;;;;;27.50;21.15;;;;;;;;;;6126134;23;20190;-83
2021/01/26 10:47:00;;;;;;;26.25;22.58;;;;;;;;;;6170022;23;20147;-82
2021/01/26 10:49:43;;;;;;;25.00;22.35;;;;;;;;;;6196279;23;20170;-86
2021/01/26 10:52:37;;;;;;;26.77;19.98;;;;;;;;;;6196404;23;20157;-82
2021/01/26 10:55:24;;;;;;;26.27;21.92;;;;;;;;;;6284173;22;20144;-83
2021/01/26 10:57:51;;;;;;;27.40;22.90;;;;;;;;;;6263818;22;20168;-82
2021/01/26 11:00:54;;;;;;;28.40;22.27;;;;;;;;;;6297488;22;20159;-82
2021/01/26 11:03:54;;;;;;;25.48;20.77;;;;;;;;;;6323480;22;20140;-82
2021/01/26 11:06:45;;;;;;;27.95;22.33;;;;;;;;;;6297090;22;20206;-83
2021/01/26 11:09:31;;;;;;;27.13;22.27;;;;;;;;;;6293968;22;20183;-80
2021/01/26 11:15:51;;;;;;;;;;;;;;;;;;;;;
2021/01/26 11:18:34;;;;;;;26.52;22.13;;;;;;;;;;6324065;22;20168;-82
2021/01/26 11:21:35;;;;;;;27.00;22.80;;;;;;;;;;6264603;22;20629;-82
2021/01/26 11:24:12;;;;;;;28.40;25.38;;;;;;;;;;6286199;22;20498;-82
2021/01/26 11:26:54;;;;;;;33.15;27.42;;;;;;;;;;6263122;22;20144;-82
2021/01/26 11:29:23;;;;;;;30.00;24.20;;;;;;;;;;6316534;22;20177;-83
2021/01/26 11:31:50;;;;;;;27.45;23.88;;;;;;;;;;6290945;22;20132;-85
2021/01/26 11:34:48;;;;;;;30.00;23.58;;;;;;;;;;6293735;22;20140;-86
2021/01/26 11:37:20;;;;;;;26.20;22.60;;;;;;;;;;6292719;22;20217;-84
2021/01/26 11:39:46;;;;;;;28.10;24.40;;;;;;;;;;6270698;22;20144;-85
2021/01/26 11:42:17;;;;;;;33.50;24.35;;;;;;;;;;6296301;22;20144;-86
2021/01/26 11:44:50;;;;;;;27.65;24.65;;;;;;;;;;6297581;22;20121;-85
2021/01/26 11:47:16;;;;;;;27.90;23.63;;;;;;;;;;6293359;22;20198;-84
2021/01/26 11:49:45;;;;;;;29.95;25.20;;;;;;;;;;6322974;22;20472;-85
2021/01/26 11:52:21;;;;;;;25.73;22.58;;;;;;;;;;6320878;22;20159;-84
2021/01/26 11:54:47;;;;;;;27.33;23.52;;;;;;;;;;6291360;22;20148;-85
2021/01/26 11:57:17;;;;;;;27.10;23.40;;;;;;;;;;6290886;22;20176;-84
2021/01/26 11:59:45;;;;;;;27.95;24.00;;;;;;;;;;6266209;22;20144;-85
2021/01/26 12:02:23;;;;;;;27.27;22.55;;;;;;;;;;6293298;22;20140;-85
2021/01/26 12:04:52;;;;;;;28.15;23.63;;;;;;;;;;6292693;22;20135;-85
2021/01/26 12:07:21;;;;;;;30.42;27.13;;;;;;;;;;6319887;22;20535;-85
2021/01/26 12:09:57;;;;;;;;;;;;;;;;;;;;;
2021/01/26 12:12:26;;;;;;;32.22;24.35;;;;;;;;;;6328377;22;20188;-83
2021/01/26 12:14:55;;;;;;;27.25;24.30;;;;;;;;;;6300485;22;20208;-84
2021/01/26 12:17:23;;;;;;;25.97;23.13;;;;;;;;;;6295588;22;20157;-84
2021/01/26 12:19:49;;;;;;;28.48;25.48;;;;;;;;;;6317590;22;20363;-83
2021/01/26 12:22:16;;;;;;;25.10;22.35;;;;;;;;;;6294787;22;20141;-83
2021/01/26 12:24:57;;;;;;;25.70;22.08;;;;;;;;;;6295320;22;20151;-84
2021/01/26 12:28:02;;;;;;;25.67;22.95;;;;;;;;;;6297015;22;20184;-85
2021/01/26 12:30:39;;;;;;;;;;;;;;;;;;;;;
2021/01/26 12:33:25;;;;;;;25.70;22.98;;;;;;;;;;6291932;22;20140;-86
2021/01/26 12:36:00;;;;;;;29.15;25.67;;;;;;;;;;6266167;22;20579;-85
2021/01/26 12:38:51;;;;;;;30.27;25.50;;;;;;;;;;6290505;22;20248;-85
2021/01/26 12:41:44;;;;;;;31.40;25.30;;;;;;;;;;6302459;22;20203;-84
2021/01/26 12:44:13;;;;;;;30.25;24.85;;;;;;;;;;6291023;22;20175;-84
2021/01/26 12:46:41;;;;;;;26.48;23.58;;;;;;;;;;6267046;22;20238;-84
2021/01/26 12:49:07;;;;;;;23.98;21.52;;;;;;;;;;6317929;22;20176;-85
2021/01/26 12:51:40;;;;;;;27.27;24.33;;;;;;;;;;6265864;22;20152;-85
2021/01/26 12:54:10;;;;;;;29.70;23.50;;;;;;;;;;6293230;22;20201;-84
2021/01/26 12:56:55;;;;;;;;;;;;;;;;;;;;;
2021/01/26 12:59:22;;;;;;;27.27;21.85;;;;;;;;;;6322256;22;20144;-85
2021/01/26 13:01:57;;;;;;;24.55;19.65;;;;;;;;;;6321491;22;20192;-84
2021/01/26 13:04:44;;;;;;;24.90;21.90;;;;;;;;;;6319874;22;20236;-86
2021/01/26 13:11:13;;;;;;;;;;;;;;;;;;;;;
2021/01/26 13:28:53;;;;;;;24.55;21.88;;;;;;;;;;6065681;23;20677;-82
2021/01/26 13:31:20;;;;;;;23.15;19.73;;;;;;;;;;6020577;23;20166;-85
2021/01/26 13:34:17;;;;;;;;;;;;;;;;;;;;;
2021/01/26 13:37:17;;;;;;;25.50;22.83;;;;;;;;;;6072796;23;20175;-84
2021/01/26 13:40:00;;;;;;;26.75;21.23;;;;;;;;;;6198630;23;20143;-85
2021/01/26 13:42:35;;;;;;;27.45;21.45;;;;;;;;;;6175462;23;20225;-85
2021/01/26 13:45:56;;;;;;;25.45;20.42;;;;;;;;;;6145079;23;20242;-84
2021/01/26 13:48:23;;;;;;;23.20;18.55;;;;;;;;;;6194025;23;20202;-84
2021/01/26 13:51:06;;;;;;;23.83;21.13;;;;;;;;;;6170952;23;20159;-85
2021/01/26 13:53:38;;;;;;;20.00;17.92;;;;;;;;;;6169635;23;20147;-84
2021/01/26 13:56:07;;;;;;;20.13;17.50;;;;;;;;;;6196801;23;20178;-84
2021/01/26 13:58:34;;;;;;;20.83;18.73;;;;;;;;;;6169063;23;20182;-85
2021/01/26 14:01:06;;;;;;;19.05;16.90;;;;;;;;;;6170134;23;20191;-84
2021/01/26 14:03:40;;;;;;;25.73;18.27;;;;;;;;;;6169994;23;20155;-83
2021/01/26 14:06:35;;;;;;;22.60;19.92;;;;;;;;;;6194006;23;20166;-84
2021/01/26 14:09:14;;;;;;;22.58;18.25;;;;;;;;;;6166358;23;20197;-83
2021/01/26 14:12:01;;;;;;;21.58;16.63;;;;;;;;;;6171320;23;20151;-86
2021/01/26 14:14:28;;;;;;;19.80;17.45;;;;;;;;;;6168429;23;20207;-85
2021/01/26 14:20:19;;;;;;;18.25;16.30;;;;;;;;;;6304417;22;20148;-85
2021/01/26 14:23:09;;;;;;;26.08;21.63;;;;;;;;;;6257652;22;20219;-85
2021/01/26 14:25:55;;;;;;;24.75;22.00;;;;;;;;;;6294193;22;20167;-84
2021/01/26 14:28:37;;;;;;;27.60;24.42;;;;;;;;;;6273306;22;20187;-85
2021/01/26 14:31:17;;;;;;;;;;;;;;;;;;;;;
2021/01/26 14:34:06;;;;;;;;;;;;;;;;;;;;;
2021/01/26 14:36:33;;;;;;;29.40;23.85;;;;;;;;;;6193884;23;20147;-85
2021/01/26 14:39:03;;;;;;;27.95;21.33;;;;;;;;;;6170977;23;20171;-83
2021/01/26 14:41:33;;;;;;;24.30;20.70;;;;;;;;;;6195354;23;20715;-84
2021/01/26 14:44:02;;;;;;;29.83;22.15;;;;;;;;;;6195036;23;20143;-84
2021/01/26 14:46:29;;;;;;;27.15;21.77;;;;;;;;;;6194562;23;20636;-85
2021/01/26 15:52:44;;;;;;;;;;;;;;;;;;;;;
2021/01/26 16:24:14;;;;;;;;;;;;;;;;;;;;;
2021/01/26 16:35:38;;;;;;;;;;;;;;;;;;;;;
2021/01/26 16:45:56;;;;;;;21.63;17.23;;;;;;;;;;5796379;24;20170;-82
2021/01/26 17:05:40;;;;;;;22.52;18.42;;;;;;;;;;6158890;23;20155;-85
2021/01/26 17:43:49;;;;;;;18.73;16.08;;;;;;;;;;6290246;22;20193;-87
2021/01/26 18:55:16;;;;;;;;;;;;;;;;;;;;;
2021/01/26 19:02:14;;;;;;;;;;;;;;;;;;;;;
2021/01/26 19:36:48;;;;;;;;;;;;;;;;;;;;;
2021/01/26 20:01:37;;;;;;;;;;;;;;;;;;;;;
2021/01/26 20:05:07;;;;;;;;;;;;;;;;;;;;;
2021/01/26 20:11:54;;;;;;;14.27;11.43;;;;;;;;;;5970241;24;20180;-87
2021/01/26 21:14:30;;;;;;;;;;;;;;;;;;;;;
